Time;durP1;ratioP1;P1;durP2;ratioP2;P2;SDS_P1;SDS_P2;PMS_P1;PMS_P2;Temp;Humidity;BMP_temperature;BMP_pressure;BME280_temperature;BME280_humidity;BME280_pressure;Samples;Min_cycle;Max_cycle;Signal;HPM_P1;HPM_P2
2022/09/12 00:01:48;;;;;;;4.22;2.53;;;;;;;28.14;53.80;101394.56;4195285;28;20098;-61
2022/09/12 00:03:54;;;;;;;3.78;2.53;;;;;;;28.21;53.93;101411.81;4197156;28;20045;-62
2022/09/12 00:06:06;;;;;;;3.75;2.42;;;;;;;28.11;53.99;101395.19;4197327;28;20040;-60
2022/09/12 00:08:08;;;;;;;7.25;2.47;;;;;;;28.24;53.98;101405.56;4197823;28;20044;-60
2022/09/12 00:10:09;;;;;;;6.32;2.60;;;;;;;28.23;53.93;101403.91;4197379;28;20094;-61
2022/09/12 00:12:10;;;;;;;3.30;1.88;;;;;;;28.18;54.03;101406.84;4197265;28;20110;-61
2022/09/12 00:14:17;;;;;;;3.80;2.85;;;;;;;28.19;54.19;101402.88;4197483;28;20032;-61
2022/09/12 00:16:23;;;;;;;3.70;2.63;;;;;;;28.20;53.77;101409.31;4197438;28;20041;-61
2022/09/12 00:18:24;;;;;;;7.15;2.65;;;;;;;28.23;54.20;101398.28;4197684;28;20028;-61
2022/09/12 00:20:26;;;;;;;5.40;2.70;;;;;;;28.21;54.06;101400.56;4202207;28;20043;-61
2022/09/12 00:22:27;;;;;;;7.63;2.60;;;;;;;28.25;53.69;101406.38;4203569;28;20044;-61
2022/09/12 00:24:28;;;;;;;6.82;2.42;;;;;;;28.22;53.51;101395.75;4193233;28;20097;-62
2022/09/12 00:26:30;;;;;;;8.07;3.03;;;;;;;28.22;53.54;101395.75;4196334;28;20094;-61
2022/09/12 00:28:37;;;;;;;9.13;2.65;;;;;;;28.12;53.85;101377.16;4196838;28;20036;-62
2022/09/12 00:30:46;;;;;;;6.93;2.60;;;;;;;28.10;54.23;101379.47;4202221;28;20097;-62
2022/09/12 00:32:53;;;;;;;7.88;2.70;;;;;;;28.30;54.16;101404.25;4210701;28;20048;-62
2022/09/12 00:34:54;;;;;;;6.18;2.58;;;;;;;28.31;54.20;101402.28;4196842;28;20044;-62
2022/09/12 00:36:55;;;;;;;7.90;2.40;;;;;;;28.35;54.18;101406.16;4199296;28;20083;-62
2022/09/12 00:38:57;;;;;;;5.05;2.80;;;;;;;28.34;54.35;101405.31;4196601;28;20037;-62
2022/09/12 00:41:01;;;;;;;5.60;2.85;;;;;;;28.34;54.53;101405.31;4188763;28;20558;-62
2022/09/12 00:43:02;;;;;;;7.53;2.88;;;;;;;28.33;54.69;101403.63;4209142;28;20097;-62
2022/09/12 00:45:04;;;;;;;9.63;2.85;;;;;;;28.31;54.89;101400.28;4213621;28;20044;-61
2022/09/12 00:47:29;;;;;;;7.90;2.85;;;;;;;28.34;54.88;101405.31;4200649;28;20048;-61
2022/09/12 00:49:41;;;;;;;6.28;2.53;;;;;;;28.38;54.92;101399.06;4184455;28;20433;-61
2022/09/12 00:51:51;;;;;;;7.35;2.45;;;;;;;28.38;55.22;101404.69;4194437;28;20036;-62
2022/09/12 00:53:54;;;;;;;8.38;2.40;;;;;;;28.36;55.16;101397.41;4206143;28;20044;-62
2022/09/12 00:55:58;;;;;;;11.05;3.15;;;;;;;28.40;55.73;101402.38;4211660;28;20442;-62
2022/09/12 00:58:10;;;;;;;8.38;2.75;;;;;;;28.28;55.66;101386.88;4206480;28;20437;-62
2022/09/12 01:00:15;;;;;;;8.00;3.00;;;;;;;28.42;55.80;101400.09;4197755;28;20434;-62
2022/09/12 01:02:16;;;;;;;;;;;;;;;28.41;55.93;101399.25;4198542;28;20040;-62
2022/09/12 01:04:20;;;;;;;4.05;2.40;;;;;;;28.47;55.94;101403.59;4201955;28;19916;-62
2022/09/12 01:06:29;;;;;;;4.60;3.15;;;;;;;28.47;55.92;101397.97;4204488;28;20040;-62
2022/09/12 01:08:39;;;;;;;4.35;2.38;;;;;;;28.41;56.06;101381.50;4207450;28;20089;-62
2022/09/12 01:10:41;;;;;;;8.90;3.10;;;;;;;28.43;55.89;101390.47;4213415;28;20044;-62
2022/09/12 01:12:43;;;;;;;6.15;2.90;;;;;;;28.48;56.17;101399.63;4202829;28;20178;-62
2022/09/12 01:14:47;;;;;;;7.28;3.10;;;;;;;28.38;56.18;101371.75;4206709;28;20556;-62
2022/09/12 01:16:50;;;;;;;7.83;3.37;;;;;;;28.49;56.33;101390.00;4198782;28;20041;-62
2022/09/12 01:19:26;;;;;;;8.10;3.40;;;;;;;28.48;56.16;101393.16;4201865;28;20040;-62
2022/09/12 01:21:33;;;;;;;;;;;;;;;28.50;56.46;101396.47;4183337;28;20045;-62
2022/09/12 01:24:23;;;;;;;6.72;3.00;;;;;;;28.53;56.60;101395.84;4204936;28;20393;-63
2022/09/12 01:26:50;;;;;;;8.35;3.15;;;;;;;28.46;56.49;101387.03;4182922;28;20045;-62
2022/09/12 01:29:22;;;;;;;5.18;2.60;;;;;;;28.54;56.23;101391.84;4183596;28;20460;-62
2022/09/12 01:32:02;;;;;;;4.40;2.92;;;;;;;28.52;56.60;101380.09;4198371;28;20480;-62
2022/09/12 01:34:06;;;;;;;8.23;3.05;;;;;;;28.54;56.29;101377.78;4197055;28;20045;-63
2022/09/12 01:36:23;;;;;;;4.28;2.60;;;;;;;28.52;54.91;101380.94;4200953;28;20048;-63
2022/09/12 01:38:35;;;;;;;5.95;2.65;;;;;;;28.54;54.11;101374.97;4206471;28;20439;-62
2022/09/12 01:40:45;;;;;;;4.97;2.85;;;;;;;28.54;54.59;101370.16;4198852;28;20052;-61
2022/09/12 01:43:02;;;;;;;8.20;2.75;;;;;;;28.55;54.82;101366.22;4189957;28;20197;-64
2022/09/12 01:45:13;;;;;;;6.70;2.83;;;;;;;28.57;53.92;101360.25;4206166;28;20036;-64
2022/09/12 01:47:38;;;;;;;3.83;2.53;;;;;;;28.56;53.49;101359.41;4195355;28;20102;-64
2022/09/12 01:49:51;;;;;;;6.82;3.10;;;;;;;28.59;53.31;101357.94;4211216;28;20048;-64
2022/09/12 01:52:03;;;;;;;5.93;2.85;;;;;;;28.51;53.50;101345.50;4207077;28;20438;-63
2022/09/12 01:54:19;;;;;;;4.85;2.80;;;;;;;28.59;53.23;101355.97;4183345;28;20045;-64
2022/09/12 01:56:28;;;;;;;6.13;2.75;;;;;;;28.60;53.05;101348.34;4191736;28;20484;-64
2022/09/12 01:58:40;;;;;;;4.65;2.63;;;;;;;28.59;53.09;101346.66;4198137;28;20516;-63
2022/09/12 02:01:00;;;;;;;5.03;2.60;;;;;;;28.59;53.02;101349.47;4200176;28;20106;-62
2022/09/12 02:03:09;;;;;;;5.50;2.95;;;;;;;28.61;53.01;101341.56;4215593;28;20047;-63
2022/09/12 02:05:17;;;;;;;6.80;2.75;;;;;;;28.54;53.06;101329.91;4206451;28;20102;-63
2022/09/12 02:07:40;;;;;;;6.47;2.90;;;;;;;28.56;53.13;101336.06;4212850;28;20078;-63
2022/09/12 02:10:04;;;;;;;9.00;2.90;;;;;;;28.57;52.95;101334.91;4216000;28;20373;-62
2022/09/12 02:12:11;;;;;;;5.55;2.63;;;;;;;28.50;52.86;101320.47;4196165;28;20508;-63
2022/09/12 02:14:27;;;;;;;5.05;2.60;;;;;;;28.57;52.82;101338.56;4199275;28;20045;-63
2022/09/12 02:16:35;;;;;;;8.23;2.92;;;;;;;28.60;53.02;101339.91;4197014;28;20040;-63
2022/09/12 02:18:42;;;;;;;4.85;2.92;;;;;;;28.60;53.14;101345.53;4207995;28;20028;-63
2022/09/12 02:20:47;;;;;;;6.47;3.05;;;;;;;28.45;52.88;101320.59;4208759;28;20158;-63
2022/09/12 02:22:51;;;;;;;5.88;2.53;;;;;;;28.59;53.14;101333.44;4198810;28;20423;-62
2022/09/12 02:24:57;;;;;;;3.50;2.63;;;;;;;28.61;53.33;101344.38;4197344;28;20067;-63
2022/09/12 02:27:19;;;;;;;6.45;3.25;;;;;;;28.57;53.35;101335.75;4198951;28;20514;-62
2022/09/12 02:29:20;;;;;;;7.18;2.97;;;;;;;28.44;53.25;101310.50;4201446;28;20048;-63
2022/09/12 02:31:31;;;;;;;8.10;2.75;;;;;;;28.40;52.86;101298.22;4215340;28;20032;-63
2022/09/12 02:34:07;;;;;;;6.22;3.20;;;;;;;28.60;53.29;101323.84;4209342;28;20052;-63
2022/09/12 02:36:22;;;;;;;4.72;2.63;;;;;;;28.63;53.05;101320.34;4209770;28;20036;-62
2022/09/12 02:38:31;;;;;;;;;;;;;;;28.62;53.49;101315.88;4205556;28;20040;-63
2022/09/12 02:40:33;;;;;;;4.78;3.08;;;;;;;28.69;52.95;101308.97;4215384;28;20424;-62
2022/09/12 02:42:35;;;;;;;6.30;2.65;;;;;;;28.68;53.74;101308.09;4203884;28;20094;-63
2022/09/12 02:44:40;;;;;;;47.58;5.60;;;;;;;28.66;54.06;101313.25;4215137;28;20036;-62
2022/09/12 02:46:46;;;;;;;7.95;3.20;;;;;;;28.66;55.41;101315.25;4207246;28;20586;-64
2022/09/12 02:48:48;;;;;;;14.38;3.67;;;;;;;28.60;56.97;101297.66;4213683;28;20425;-63
2022/09/12 02:50:49;;;;;;;7.28;3.03;;;;;;;28.59;56.64;101291.22;4214833;28;20116;-63
2022/09/12 02:52:53;;;;;;;8.20;2.90;;;;;;;28.61;56.94;101290.88;4201742;28;20040;-63
2022/09/12 02:54:57;;;;;;;12.13;3.00;;;;;;;28.60;57.60;101289.22;4210805;28;20040;-63
2022/09/12 02:56:58;;;;;;;11.45;3.45;;;;;;;28.60;57.52;101289.22;4198127;28;20423;-63
2022/09/12 02:59:07;;;;;;;10.57;3.33;;;;;;;28.58;57.75;101285.88;4198265;28;20086;-63
2022/09/12 03:01:38;;;;;;;9.25;2.97;;;;;;;28.60;57.91;101287.22;4193242;28;20056;-63
2022/09/12 03:03:51;;;;;;;10.90;3.10;;;;;;;28.63;58.10;101288.56;4172238;28;20044;-63
2022/09/12 03:05:59;;;;;;;9.07;2.95;;;;;;;28.62;58.04;101289.72;4181543;28;20061;-63
2022/09/12 03:08:15;;;;;;;9.52;2.80;;;;;;;28.61;58.28;101293.69;4207875;28;20032;-64
2022/09/12 03:10:31;;;;;;;7.38;2.85;;;;;;;28.61;58.21;101291.69;4215007;28;20044;-63
2022/09/12 03:12:59;;;;;;;8.45;3.35;;;;;;;28.60;58.56;101303.31;4203967;28;20044;-63
2022/09/12 03:15:09;;;;;;;9.55;3.10;;;;;;;28.62;58.51;101300.97;4198410;28;20048;-63
2022/09/12 03:17:25;;;;;;;7.03;2.55;;;;;;;28.61;58.44;101313.41;4194738;28;20074;-63
2022/09/12 03:20:00;;;;;;;7.72;2.72;;;;;;;28.58;58.60;101308.41;4197437;28;20101;-64
2022/09/12 03:22:10;;;;;;;5.32;2.53;;;;;;;28.62;58.44;101306.59;4195938;28;20162;-63
2022/09/12 03:24:31;;;;;;;7.95;2.95;;;;;;;28.60;58.41;101308.94;4198217;28;20101;-63
2022/09/12 03:26:41;;;;;;;16.42;3.50;;;;;;;28.57;57.44;101306.75;4202531;28;20048;-64
2022/09/12 03:28:47;;;;;;;5.05;2.42;;;;;;;28.63;58.50;101302.63;4197802;28;20125;-63
2022/09/12 03:30:54;;;;;;;6.93;2.90;;;;;;;28.60;58.40;101306.13;4197923;28;21141;-64
2022/09/12 03:32:55;;;;;;;6.03;2.83;;;;;;;28.57;58.34;101303.94;4213864;28;20044;-64
2022/09/12 03:34:57;;;;;;;14.15;3.30;;;;;;;28.42;58.19;101281.84;4202891;28;20537;-63
2022/09/12 03:36:58;;;;;;;11.02;3.13;;;;;;;28.53;58.43;101288.84;4208864;28;20097;-63
2022/09/12 03:39:00;;;;;;;8.07;2.78;;;;;;;28.51;58.34;101288.34;4200703;28;20040;-64
2022/09/12 03:41:01;;;;;;;12.07;4.40;;;;;;;28.56;57.71;101297.47;4205214;28;20035;-63
2022/09/12 03:43:04;;;;;;;8.63;3.05;;;;;;;28.61;56.45;101296.50;4192493;28;20040;-62
2022/09/12 03:45:06;;;;;;;6.53;2.70;;;;;;;28.66;55.94;101299.16;4198883;28;20121;-63
2022/09/12 03:47:07;;;;;;;11.05;3.17;;;;;;;28.68;55.51;101291.22;4206640;28;20040;-63
2022/09/12 03:49:09;;;;;;;8.07;3.40;;;;;;;28.70;55.67;101288.09;4196504;28;20400;-63
2022/09/12 03:51:13;;;;;;;8.18;3.28;;;;;;;28.66;56.07;101275.81;4203803;28;20040;-63
2022/09/12 03:53:17;;;;;;;5.97;2.30;;;;;;;28.69;56.04;101290.09;4195484;28;20094;-64
2022/09/12 03:55:18;;;;;;;9.68;2.90;;;;;;;28.73;55.88;101299.53;4208186;28;20032;-63
2022/09/12 03:57:20;;;;;;;11.35;2.83;;;;;;;28.74;56.07;101294.75;4214364;28;20085;-64
2022/09/12 03:59:21;;;;;;;5.10;2.55;;;;;;;28.73;56.06;101291.09;4208060;28;20369;-63
2022/09/12 04:01:23;;;;;;;4.07;2.88;;;;;;;28.73;56.10;101288.28;4197471;28;20074;-63
2022/09/12 04:03:24;;;;;;;8.07;2.85;;;;;;;28.72;56.25;101280.13;4197448;28;20045;-63
2022/09/12 04:05:26;;;;;;;8.73;3.25;;;;;;;28.72;56.09;101280.97;4197441;28;20044;-63
2022/09/12 04:07:27;;;;;;;8.85;2.90;;;;;;;28.71;56.02;101273.69;4204298;28;20040;-63
2022/09/12 04:09:29;;;;;;;7.28;2.70;;;;;;;28.70;56.09;101272.03;4214108;28;20101;-63
2022/09/12 04:11:31;;;;;;;5.22;2.38;;;;;;;28.71;56.16;101264.41;4207743;28;20032;-63
2022/09/12 04:13:36;;;;;;;6.25;2.72;;;;;;;28.70;55.49;101254.31;4204031;28;20044;-63
2022/09/12 04:15:37;;;;;;;3.70;2.38;;;;;;;28.72;56.03;101257.59;4201049;28;20439;-64
2022/09/12 04:17:39;;;;;;;4.20;2.53;;;;;;;28.70;55.76;101254.31;4197719;28;20041;-63
2022/09/12 04:19:40;;;;;;;6.10;2.35;;;;;;;28.71;55.72;101268.03;4197492;28;20094;-63
2022/09/12 04:21:41;;;;;;;8.02;2.67;;;;;;;28.56;55.66;101254.41;4197070;28;20102;-63
2022/09/12 04:23:43;;;;;;;4.20;2.20;;;;;;;28.58;55.86;101252.09;4197606;28;20037;-63
2022/09/12 04:25:55;;;;;;;4.30;2.53;;;;;;;28.68;55.89;101268.69;4208895;28;20101;-64
2022/09/12 04:27:57;;;;;;;4.72;2.60;;;;;;;28.69;55.62;101276.00;4199815;28;20056;-63
2022/09/12 04:30:01;;;;;;;6.70;2.47;;;;;;;28.69;55.60;101273.19;4199086;28;20086;-64
2022/09/12 04:32:03;;;;;;;5.60;2.33;;;;;;;28.69;55.69;101264.75;4202950;28;20082;-64
2022/09/12 04:34:04;;;;;;;4.22;2.40;;;;;;;28.66;55.34;101253.28;4214595;28;20268;-64
2022/09/12 04:36:15;;;;;;;4.82;2.65;;;;;;;28.70;55.23;101255.13;4217892;28;20073;-64
2022/09/12 04:38:19;;;;;;;4.38;2.28;;;;;;;28.72;55.65;101257.59;4200748;28;20117;-64
2022/09/12 04:40:20;;;;;;;3.45;2.60;;;;;;;28.66;55.43;101251.31;4200466;28;20036;-64
2022/09/12 04:42:22;;;;;;;4.90;2.50;;;;;;;28.69;55.33;101242.22;4203936;28;20102;-64
2022/09/12 04:44:23;;;;;;;3.45;2.20;;;;;;;28.69;55.10;101239.41;4212889;28;20040;-64
2022/09/12 04:46:25;;;;;;;5.55;2.80;;;;;;;28.70;55.35;101241.03;4200398;28;20094;-64
2022/09/12 04:48:26;;;;;;;5.78;2.65;;;;;;;28.70;55.06;101232.59;4213746;28;20105;-64
2022/09/12 04:50:27;;;;;;;6.57;2.47;;;;;;;28.70;55.10;101235.41;4215966;28;20372;-64
2022/09/12 04:52:31;;;;;;;5.90;2.58;;;;;;;28.70;54.99;101238.22;4209727;28;20048;-64
2022/09/12 04:54:33;;;;;;;5.95;2.95;;;;;;;28.67;54.99;101233.25;4199914;28;20102;-64
2022/09/12 04:56:39;;;;;;;3.95;2.45;;;;;;;28.69;55.07;101230.94;4216534;28;20101;-64
2022/09/12 04:58:40;;;;;;;5.47;2.83;;;;;;;28.69;54.76;101225.31;4214602;28;20040;-64
2022/09/12 05:00:42;;;;;;;5.57;2.85;;;;;;;28.71;54.24;101234.25;4214270;28;20044;-63
2022/09/12 05:02:43;;;;;;;6.93;2.80;;;;;;;28.72;53.95;101229.44;4216520;28;20101;-64
2022/09/12 05:04:45;;;;;;;2.85;1.95;;;;;;;28.65;54.14;101210.22;4202979;28;20044;-64
2022/09/12 05:06:47;;;;;;;4.03;2.60;;;;;;;28.72;54.05;101227.47;4200428;28;20037;-64
2022/09/12 05:08:49;;;;;;;6.03;2.58;;;;;;;28.72;54.21;101221.81;4213450;28;20044;-64
2022/09/12 05:10:50;;;;;;;4.00;2.47;;;;;;;28.70;53.97;101203.63;4211888;28;20040;-64
2022/09/12 05:12:51;;;;;;;2.63;2.20;;;;;;;28.72;54.14;101207.75;4199596;28;20040;-64
2022/09/12 05:14:53;;;;;;;5.47;2.17;;;;;;;28.73;53.81;101215.06;4198922;28;20086;-64
2022/09/12 05:16:58;;;;;;;10.32;2.80;;;;;;;28.73;53.90;101208.59;4200181;28;20041;-64
2022/09/12 05:18:59;;;;;;;6.40;2.88;;;;;;;28.56;53.86;101175.59;4200175;28;20426;-65
2022/09/12 05:21:06;;;;;;;3.58;2.47;;;;;;;28.65;53.95;101184.88;4197573;28;20592;-64
2022/09/12 05:23:08;;;;;;;3.67;2.55;;;;;;;28.71;53.85;101194.81;4199462;28;20110;-64
2022/09/12 05:25:09;;;;;;;4.82;2.30;;;;;;;28.57;53.66;101175.25;4215709;28;20036;-65
2022/09/12 05:27:13;;;;;;;4.35;2.85;;;;;;;28.72;53.91;101202.09;4214321;28;20040;-64
2022/09/12 05:29:15;;;;;;;3.47;2.33;;;;;;;28.72;53.89;101190.84;4200854;28;20090;-64
2022/09/12 05:31:22;;;;;;;4.43;2.40;;;;;;;28.72;53.75;101190.84;4198269;28;20101;-64
2022/09/12 05:33:23;;;;;;;6.47;2.85;;;;;;;28.70;53.82;101176.28;4199614;28;20458;-64
2022/09/12 05:35:24;;;;;;;6.28;2.28;;;;;;;28.73;53.71;101175.63;4198762;28;20040;-64
2022/09/12 05:37:31;;;;;;;3.75;2.47;;;;;;;28.72;53.78;101173.94;4199535;28;20541;-64
2022/09/12 05:39:33;;;;;;;3.45;2.20;;;;;;;28.71;53.77;101180.75;4198648;28;20040;-64
2022/09/12 05:41:34;;;;;;;3.60;2.08;;;;;;;28.65;53.51;101162.34;4197318;28;20361;-64
2022/09/12 05:43:37;;;;;;;4.72;2.47;;;;;;;28.72;53.58;101165.50;4206833;28;20540;-64
2022/09/12 05:45:40;;;;;;;4.25;2.95;;;;;;;28.70;53.50;101159.38;4207831;28;20081;-64
2022/09/12 05:47:42;;;;;;;3.00;1.95;;;;;;;28.68;53.56;101150.41;4215618;28;20044;-64
2022/09/12 05:49:44;;;;;;;4.57;2.80;;;;;;;28.71;53.64;101155.41;4205707;28;20078;-64
2022/09/12 05:51:48;;;;;;;4.43;2.55;;;;;;;28.72;53.47;101154.22;4199170;28;20040;-64
2022/09/12 05:53:53;;;;;;;4.65;1.88;;;;;;;28.71;53.39;101152.59;4198301;28;20044;-64
2022/09/12 05:56:09;;;;;;;2.47;2.25;;;;;;;28.70;53.50;101150.94;4199328;28;20090;-64
2022/09/12 05:58:13;;;;;;;3.13;2.08;;;;;;;28.72;53.19;101145.78;4210289;28;20101;-64
2022/09/12 06:00:15;;;;;;;7.25;2.38;;;;;;;28.72;53.32;101145.78;4214642;28;20032;-64
2022/09/12 06:02:17;;;;;;;4.43;2.58;;;;;;;28.72;53.24;101144.97;4204697;28;20048;-64
2022/09/12 06:04:22;;;;;;;5.18;2.35;;;;;;;28.70;53.42;101136.84;4198018;28;20045;-65
2022/09/12 06:06:24;;;;;;;3.58;2.55;;;;;;;28.72;53.39;101139.34;4199262;28;20040;-64
2022/09/12 06:08:25;;;;;;;3.30;2.58;;;;;;;28.72;53.63;101142.16;4204651;28;20078;-64
2022/09/12 06:10:27;;;;;;;2.95;2.10;;;;;;;28.72;53.42;101140.16;4215511;28;20097;-65
2022/09/12 06:12:31;;;;;;;4.93;2.28;;;;;;;28.64;53.40;101115.66;4212694;28;20044;-64
2022/09/12 06:14:33;;;;;;;3.45;2.50;;;;;;;28.71;53.43;101127.25;4214890;28;20118;-64
2022/09/12 06:16:34;;;;;;;3.58;2.20;;;;;;;28.72;53.61;101128.06;4202642;28;20037;-64
2022/09/12 06:18:40;;;;;;;3.65;2.45;;;;;;;28.69;53.43;101118.31;4198725;28;20090;-64
2022/09/12 06:20:41;;;;;;;5.32;2.67;;;;;;;28.71;53.50;101110.34;4197908;28;20110;-64
2022/09/12 06:22:42;;;;;;;5.50;2.58;;;;;;;28.71;53.36;101110.34;4198492;28;20040;-65
2022/09/12 06:24:44;;;;;;;6.03;2.65;;;;;;;28.70;53.44;101108.69;4197722;28;20446;-64
2022/09/12 06:26:51;;;;;;;4.35;2.58;;;;;;;28.68;53.48;101102.53;4198104;28;20032;-63
2022/09/12 06:28:54;;;;;;;3.78;2.40;;;;;;;28.70;53.23;101091.81;4211660;28;20486;-64
2022/09/12 06:31:06;;;;;;;3.03;2.35;;;;;;;28.61;53.39;101088.97;4212820;28;20032;-65
2022/09/12 06:33:10;;;;;;;3.55;2.85;;;;;;;28.69;53.43;101090.16;4212839;28;20044;-64
2022/09/12 06:35:12;;;;;;;3.70;2.20;;;;;;;28.70;53.33;101094.63;4202372;28;20098;-64
2022/09/12 06:37:13;;;;;;;5.07;2.22;;;;;;;28.69;53.21;101084.53;4215393;28;20036;-64
2022/09/12 06:39:20;;;;;;;2.70;2.30;;;;;;;28.69;53.26;101087.34;4200993;28;20036;-64
2022/09/12 06:41:22;;;;;;;2.95;2.00;;;;;;;28.70;53.10;101079.72;4196906;28;20106;-64
2022/09/12 06:43:23;;;;;;;3.15;2.10;;;;;;;28.69;52.87;101087.34;4204892;28;20077;-64
2022/09/12 06:45:25;;;;;;;2.60;2.30;;;;;;;28.69;53.21;101080.88;4204725;28;20097;-64
2022/09/12 06:47:28;;;;;;;4.15;2.50;;;;;;;28.69;53.17;101081.69;4196223;28;20033;-64
2022/09/12 06:49:30;;;;;;;3.10;2.17;;;;;;;28.68;53.08;101082.84;4196474;28;20114;-64
2022/09/12 06:51:31;;;;;;;5.68;2.78;;;;;;;28.67;53.04;101075.56;4198342;28;20369;-64
2022/09/12 06:53:33;;;;;;;4.50;2.50;;;;;;;28.68;53.26;101076.38;4206217;28;20413;-64
2022/09/12 06:55:35;;;;;;;2.85;2.20;;;;;;;28.54;53.19;101054.03;4213728;28;20047;-64
2022/09/12 06:57:37;;;;;;;3.28;2.10;;;;;;;28.68;52.97;101080.03;4201178;28;20053;-64
2022/09/12 06:59:39;;;;;;;4.03;2.10;;;;;;;28.59;53.25;101056.66;4198291;28;20576;-64
2022/09/12 07:01:40;;;;;;;4.55;2.40;;;;;;;28.61;53.23;101060.00;4208515;28;20101;-64
2022/09/12 07:03:45;;;;;;;3.42;2.42;;;;;;;28.54;53.05;101049.22;4214764;28;20039;-64
2022/09/12 07:05:47;;;;;;;3.17;2.40;;;;;;;28.67;53.07;101069.09;4205328;28;20048;-64
2022/09/12 07:07:49;;;;;;;4.28;2.45;;;;;;;28.05;53.09;100963.25;4213140;28;20052;-64
2022/09/12 07:09:53;;;;;;;4.55;2.38;;;;;;;28.67;53.25;101074.72;4210843;28;20098;-64
2022/09/12 07:11:54;;;;;;;3.75;2.15;;;;;;;28.49;53.00;101040.13;4197347;28;20044;-64
2022/09/12 07:13:58;;;;;;;4.20;2.10;;;;;;;28.67;53.03;101058.66;4207934;28;20090;-64
2022/09/12 07:16:04;;;;;;;3.35;1.90;;;;;;;28.67;52.87;101058.66;4214777;28;20036;-64
2022/09/12 07:18:05;;;;;;;3.50;2.20;;;;;;;28.68;53.05;101053.84;4196839;28;20098;-64
2022/09/12 07:20:07;;;;;;;2.65;2.15;;;;;;;28.66;53.22;101051.38;4197090;28;20085;-64
2022/09/12 07:22:08;;;;;;;3.65;2.22;;;;;;;28.65;52.91;101049.72;4197575;28;20094;-64
2022/09/12 07:24:10;;;;;;;3.10;2.13;;;;;;;28.65;52.94;101055.38;4196839;28;20117;-64
2022/09/12 07:26:13;;;;;;;2.97;2.17;;;;;;;28.45;53.13;101022.22;4202160;28;20040;-64
2022/09/12 07:28:15;;;;;;;2.65;1.95;;;;;;;28.62;52.87;101047.56;4199301;28;20094;-64
2022/09/12 07:30:16;;;;;;;4.45;2.38;;;;;;;28.66;53.11;101051.38;4198141;28;20032;-64
2022/09/12 07:32:17;;;;;;;3.17;2.25;;;;;;;28.66;53.07;101048.56;4196571;28;20036;-64
2022/09/12 07:34:19;;;;;;;4.03;2.45;;;;;;;28.62;52.72;101051.22;4196763;28;20052;-63
2022/09/12 07:36:22;;;;;;;3.45;2.53;;;;;;;28.60;52.54;101041.44;4196839;28;20032;-63
2022/09/12 07:38:26;;;;;;;2.22;2.08;;;;;;;28.67;52.60;101046.56;4197889;28;20090;-63
2022/09/12 07:40:30;;;;;;;2.72;1.95;;;;;;;28.66;52.80;101050.56;4196588;28;20098;-63
2022/09/12 07:42:31;;;;;;;5.13;2.27;;;;;;;28.65;52.91;101038.47;4198401;28;20484;-63
2022/09/12 07:44:35;;;;;;;2.30;2.10;;;;;;;28.66;52.81;101040.13;4199579;28;20297;-63
2022/09/12 07:46:39;;;;;;;2.58;2.17;;;;;;;28.60;52.66;101024.56;4197441;28;20048;-63
2022/09/12 07:48:41;;;;;;;2.27;2.03;;;;;;;28.66;52.61;101042.94;4196525;28;20025;-64
2022/09/12 07:50:45;;;;;;;2.70;2.03;;;;;;;28.68;53.16;101042.59;4189437;28;20289;-64
2022/09/12 07:52:47;;;;;;;2.30;2.10;;;;;;;28.67;52.94;101035.31;4198698;28;20032;-63
2022/09/12 07:54:48;;;;;;;4.15;2.30;;;;;;;28.68;52.99;101036.97;4211887;28;20041;-63
2022/09/12 07:56:49;;;;;;;2.83;2.13;;;;;;;28.63;52.92;101035.97;4200807;28;20044;-64
2022/09/12 07:58:50;;;;;;;2.47;2.28;;;;;;;28.67;53.22;101029.69;4210349;28;20043;-65
2022/09/12 08:00:54;;;;;;;2.33;1.90;;;;;;;28.67;53.17;101019.25;4195817;28;20036;-64
2022/09/12 08:02:56;;;;;;;2.30;2.10;;;;;;;28.67;53.03;101021.22;4201281;28;20037;-63
2022/09/12 08:05:01;;;;;;;3.33;2.08;;;;;;;28.66;53.03;101028.84;4195556;28;20036;-64
2022/09/12 08:07:02;;;;;;;2.22;1.98;;;;;;;28.67;53.01;101022.06;4197198;28;20090;-62
2022/09/12 08:09:04;;;;;;;3.00;2.10;;;;;;;28.66;53.08;101017.59;4199092;28;20037;-63
2022/09/12 08:11:11;;;;;;;2.50;2.00;;;;;;;28.67;52.94;101021.22;4196026;28;20043;-63
2022/09/12 08:13:12;;;;;;;2.65;2.10;;;;;;;28.64;53.17;101019.94;4186301;28;20099;-63
2022/09/12 08:15:14;;;;;;;2.40;1.95;;;;;;;28.67;53.30;101029.69;4212534;28;20040;-63
2022/09/12 08:17:15;;;;;;;2.65;2.20;;;;;;;28.63;53.03;101018.25;4193765;28;20491;-63
2022/09/12 08:19:17;;;;;;;3.72;1.83;;;;;;;28.66;53.47;101023.22;4197758;28;20032;-64
2022/09/12 08:21:29;;;;;;;2.08;1.85;;;;;;;28.64;53.24;101019.94;4191305;28;20036;-63
2022/09/12 08:23:34;;;;;;;2.33;1.80;;;;;;;28.52;53.13;100988.78;4196448;28;20045;-63
2022/09/12 08:25:35;;;;;;;2.67;1.83;;;;;;;28.66;53.07;101020.41;4202348;28;20032;-64
2022/09/12 08:27:38;;;;;;;3.25;2.30;;;;;;;28.66;53.12;101023.22;4210203;28;20043;-63
2022/09/12 08:29:39;;;;;;;2.30;2.10;;;;;;;28.67;53.15;101024.06;4202334;28;20425;-64
2022/09/12 08:31:46;;;;;;;3.08;2.38;;;;;;;28.65;53.08;101015.13;4213582;28;20094;-64
2022/09/12 08:33:47;;;;;;;2.20;2.00;;;;;;;28.66;53.36;101017.59;4213916;28;20056;-64
2022/09/12 08:35:49;;;;;;;3.17;2.20;;;;;;;28.65;53.11;101004.69;4201308;28;20090;-63
2022/09/12 08:37:53;;;;;;;1.95;1.80;;;;;;;28.65;53.15;101001.03;4213182;28;20043;-63
2022/09/12 08:39:55;;;;;;;2.92;2.53;;;;;;;28.65;53.19;101001.88;4204642;28;20446;-63
2022/09/12 08:42:06;;;;;;;3.08;2.15;;;;;;;28.59;53.34;100994.72;4197043;28;20044;-64
2022/09/12 08:44:26;;;;;;;3.78;2.10;;;;;;;28.62;53.04;100999.69;4196393;28;20036;-63
2022/09/12 08:46:45;;;;;;;2.08;1.60;;;;;;;28.63;53.25;100996.53;4197313;28;20040;-63
2022/09/12 08:48:49;;;;;;;2.60;2.10;;;;;;;28.54;53.07;100975.19;4197590;28;20537;-64
2022/09/12 08:50:53;;;;;;;2.05;1.85;;;;;;;28.66;53.26;100995.06;4195790;28;20104;-64
2022/09/12 08:53:09;;;;;;;3.67;2.13;;;;;;;28.66;52.98;100982.97;4196417;28;20078;-64
2022/09/12 08:55:25;;;;;;;2.40;2.17;;;;;;;28.65;53.18;100992.59;4199729;28;20052;-63
2022/09/12 08:57:32;;;;;;;2.13;1.92;;;;;;;28.67;53.00;100996.72;4203592;28;20044;-63
2022/09/12 08:59:47;;;;;;;2.85;1.60;;;;;;;28.66;53.00;100995.06;4196841;28;20045;-64
2022/09/12 09:01:57;;;;;;;2.60;2.13;;;;;;;28.66;53.01;100995.06;4195807;28;20113;-63
2022/09/12 09:04:13;;;;;;;2.10;1.85;;;;;;;28.66;53.01;100997.06;4196165;28;20113;-64
2022/09/12 09:06:46;;;;;;;2.10;1.90;;;;;;;28.65;53.12;100986.97;4197465;28;20040;-63
2022/09/12 09:09:02;;;;;;;3.47;2.08;;;;;;;28.66;53.24;100994.25;4195805;28;20102;-64
2022/09/12 09:11:20;;;;;;;2.38;1.73;;;;;;;28.67;53.21;100996.72;4196923;28;20098;-64
2022/09/12 09:16:43;;;;;;;2.53;1.95;;;;;;;28.66;53.06;100982.97;4193085;28;20439;-63
2022/09/12 09:18:49;;;;;;;2.05;1.83;;;;;;;28.61;53.18;100972.72;4198248;28;20488;-64
2022/09/12 09:21:07;;;;;;;2.13;1.92;;;;;;;28.66;53.04;100991.44;4190993;28;20032;-63
2022/09/12 09:23:33;;;;;;;3.08;1.92;;;;;;;28.66;53.09;100999.88;4202858;28;20460;-64
2022/09/12 09:25:48;;;;;;;2.20;2.00;;;;;;;28.66;52.89;100989.44;4196413;28;20044;-63
2022/09/12 09:28:02;;;;;;;2.28;2.03;;;;;;;28.67;52.93;100985.44;4198551;28;20475;-63
2022/09/12 09:30:04;;;;;;;2.30;2.10;;;;;;;28.55;53.05;100971.25;4197055;28;20040;-64
2022/09/12 09:32:32;;;;;;;2.45;1.90;;;;;;;28.51;53.01;100967.44;4199113;28;20037;-63
2022/09/12 09:34:37;;;;;;;1.67;1.58;;;;;;;28.67;52.87;100991.09;4197693;28;20045;-64
2022/09/12 09:36:57;;;;;;;2.50;1.70;;;;;;;28.65;53.09;100999.06;4197908;28;20040;-64
2022/09/12 09:39:23;;;;;;;2.28;1.83;;;;;;;28.66;53.16;101000.69;4198300;28;20036;-64
2022/09/12 09:41:53;;;;;;;2.28;1.65;;;;;;;28.62;52.85;100992.09;4197928;28;20438;-64
2022/09/12 09:43:56;;;;;;;2.03;1.80;;;;;;;28.68;53.07;100992.72;4197971;28;20488;-63
2022/09/12 09:46:03;;;;;;;2.45;2.05;;;;;;;28.54;53.10;100969.56;4199174;28;20393;-64
2022/09/12 09:48:22;;;;;;;2.33;2.00;;;;;;;28.64;53.18;100988.97;4201113;28;20410;-63
2022/09/12 09:50:23;;;;;;;2.67;1.85;;;;;;;28.65;53.08;100986.97;4210374;28;20437;-63
2022/09/12 09:52:29;;;;;;;2.72;1.92;;;;;;;28.65;53.04;100990.59;4200844;28;20036;-62
2022/09/12 09:54:48;;;;;;;4.18;1.95;;;;;;;28.63;53.05;100996.53;4195565;28;20048;-63